sensor_id;sensor_type;location;lat;lon;timestamp;temperature;humidity
23579;DHT22;11967;50.852;4.400;2022-09-03T00:04:57;24.90;78.40
23579;DHT22;11967;50.852;4.400;2022-09-03T00:07:33;25.00;77.60
23579;DHT22;11967;50.852;4.400;2022-09-03T00:10:03;24.90;77.50
23579;DHT22;11967;50.852;4.400;2022-09-03T00:12:35;25.00;77.50
23579;DHT22;11967;50.852;4.400;2022-09-03T00:17:44;25.00;76.30
23579;DHT22;11967;50.852;4.400;2022-09-03T00:20:31;25.00;76.00
23579;DHT22;11967;50.852;4.400;2022-09-03T00:23:00;25.00;76.20
23579;DHT22;11967;50.852;4.400;2022-09-03T00:25:38;24.90;75.70
23579;DHT22;11967;50.852;4.400;2022-09-03T00:28:18;24.80;75.70
23579;DHT22;11967;50.852;4.400;2022-09-03T00:30:47;24.80;75.30
23579;DHT22;11967;50.852;4.400;2022-09-03T00:33:23;24.80;75.30
23579;DHT22;11967;50.852;4.400;2022-09-03T00:36:01;24.80;75.20
23579;DHT22;11967;50.852;4.400;2022-09-03T00:38:31;24.80;75.10
23579;DHT22;11967;50.852;4.400;2022-09-03T00:52:21;24.80;74.90
23579;DHT22;11967;50.852;4.400;2022-09-03T01:00:25;24.80;74.90
23579;DHT22;11967;50.852;4.400;2022-09-03T01:06:18;24.80;74.50
23579;DHT22;11967;50.852;4.400;2022-09-03T01:15:10;24.80;74.50
23579;DHT22;11967;50.852;4.400;2022-09-03T01:18:17;24.80;74.80
23579;DHT22;11967;50.852;4.400;2022-09-03T01:29:27;24.60;76.70
23579;DHT22;11967;50.852;4.400;2022-09-03T01:40:08;24.50;78.70
23579;DHT22;11967;50.852;4.400;2022-09-03T01:48:27;24.50;80.00
23579;DHT22;11967;50.852;4.400;2022-09-03T01:59:21;24.40;82.30
23579;DHT22;11967;50.852;4.400;2022-09-03T02:02:08;24.40;82.90
23579;DHT22;11967;50.852;4.400;2022-09-03T02:04:37;24.40;83.90
23579;DHT22;11967;50.852;4.400;2022-09-03T02:07:03;24.40;84.20
23579;DHT22;11967;50.852;4.400;2022-09-03T02:09:30;24.40;84.30
23579;DHT22;11967;50.852;4.400;2022-09-03T02:12:13;24.40;84.70
23579;DHT22;11967;50.852;4.400;2022-09-03T02:14:40;24.40;85.90
23579;DHT22;11967;50.852;4.400;2022-09-03T02:17:07;24.30;87.40
23579;DHT22;11967;50.852;4.400;2022-09-03T02:19:34;24.20;89.20
23579;DHT22;11967;50.852;4.400;2022-09-03T02:22:02;24.20;90.20
23579;DHT22;11967;50.852;4.400;2022-09-03T02:24:28;24.30;90.10
23579;DHT22;11967;50.852;4.400;2022-09-03T02:26:55;24.20;90.40
23579;DHT22;11967;50.852;4.400;2022-09-03T02:29:21;24.20;90.80
23579;DHT22;11967;50.852;4.400;2022-09-03T02:31:47;24.20;91.40
23579;DHT22;11967;50.852;4.400;2022-09-03T02:34:12;24.20;91.90
23579;DHT22;11967;50.852;4.400;2022-09-03T02:36:41;24.10;92.70
23579;DHT22;11967;50.852;4.400;2022-09-03T02:39:07;24.10;93.10
23579;DHT22;11967;50.852;4.400;2022-09-03T02:41:33;24.10;93.70
23579;DHT22;11967;50.852;4.400;2022-09-03T02:44:12;24.10;94.00
23579;DHT22;11967;50.852;4.400;2022-09-03T02:46:51;24.10;94.60
23579;DHT22;11967;50.852;4.400;2022-09-03T02:49:18;24.00;95.20
23579;DHT22;11967;50.852;4.400;2022-09-03T02:51:43;24.00;95.40
23579;DHT22;11967;50.852;4.400;2022-09-03T02:54:10;24.00;95.50
23579;DHT22;11967;50.852;4.400;2022-09-03T02:56:36;24.10;95.40
23579;DHT22;11967;50.852;4.400;2022-09-03T02:59:03;24.20;95.50
23579;DHT22;11967;50.852;4.400;2022-09-03T03:01:29;24.20;95.70
23579;DHT22;11967;50.852;4.400;2022-09-03T03:03:55;24.10;95.80
23579;DHT22;11967;50.852;4.400;2022-09-03T03:06:21;24.10;96.40
23579;DHT22;11967;50.852;4.400;2022-09-03T03:08:48;24.10;96.60
23579;DHT22;11967;50.852;4.400;2022-09-03T03:11:15;24.00;97.20
23579;DHT22;11967;50.852;4.400;2022-09-03T03:13:43;23.90;97.60
23579;DHT22;11967;50.852;4.400;2022-09-03T03:16:10;23.90;97.80
23579;DHT22;11967;50.852;4.400;2022-09-03T03:18:36;23.80;98.20
23579;DHT22;11967;50.852;4.400;2022-09-03T03:21:06;23.80;98.30
23579;DHT22;11967;50.852;4.400;2022-09-03T03:23:33;23.70;98.40
23579;DHT22;11967;50.852;4.400;2022-09-03T03:26:04;23.70;98.50
23579;DHT22;11967;50.852;4.400;2022-09-03T03:28:30;23.80;98.50
23579;DHT22;11967;50.852;4.400;2022-09-03T03:31:11;23.80;98.60
23579;DHT22;11967;50.852;4.400;2022-09-03T03:33:37;23.80;98.80
23579;DHT22;11967;50.852;4.400;2022-09-03T03:36:08;23.80;99.00
23579;DHT22;11967;50.852;4.400;2022-09-03T03:38:35;23.80;99.50
23579;DHT22;11967;50.852;4.400;2022-09-03T03:41:09;23.80;99.90
23579;DHT22;11967;50.852;4.400;2022-09-03T03:43:35;23.70;99.90
23579;DHT22;11967;50.852;4.400;2022-09-03T03:46:01;23.80;99.90
23579;DHT22;11967;50.852;4.400;2022-09-03T03:48:27;23.80;99.90
23579;DHT22;11967;50.852;4.400;2022-09-03T03:50:52;23.70;99.90
23579;DHT22;11967;50.852;4.400;2022-09-03T03:53:18;23.70;99.90
23579;DHT22;11967;50.852;4.400;2022-09-03T03:55:54;23.60;99.90
23579;DHT22;11967;50.852;4.400;2022-09-03T03:58:20;23.50;99.90
23579;DHT22;11967;50.852;4.400;2022-09-03T04:00:45;23.50;99.90
23579;DHT22;11967;50.852;4.400;2022-09-03T04:03:13;23.40;99.90
23579;DHT22;11967;50.852;4.400;2022-09-03T04:05:39;23.40;99.90
23579;DHT22;11967;50.852;4.400;2022-09-03T04:08:05;23.40;99.90
23579;DHT22;11967;50.852;4.400;2022-09-03T04:10:30;23.30;99.90
23579;DHT22;11967;50.852;4.400;2022-09-03T04:12:56;23.20;99.90
23579;DHT22;11967;50.852;4.400;2022-09-03T04:15:22;23.30;99.90
23579;DHT22;11967;50.852;4.400;2022-09-03T04:17:47;23.30;99.90
23579;DHT22;11967;50.852;4.400;2022-09-03T04:20:13;23.40;99.90
23579;DHT22;11967;50.852;4.400;2022-09-03T04:22:39;23.40;99.90
23579;DHT22;11967;50.852;4.400;2022-09-03T04:25:05;23.30;99.90
23579;DHT22;11967;50.852;4.400;2022-09-03T04:27:30;23.20;99.90
23579;DHT22;11967;50.852;4.400;2022-09-03T04:29:57;23.30;99.90
23579;DHT22;11967;50.852;4.400;2022-09-03T04:32:23;23.40;99.90
23579;DHT22;11967;50.852;4.400;2022-09-03T04:35:07;23.30;99.90
23579;DHT22;11967;50.852;4.400;2022-09-03T04:37:33;23.30;99.90
23579;DHT22;11967;50.852;4.400;2022-09-03T04:39:58;23.30;99.90
23579;DHT22;11967;50.852;4.400;2022-09-03T04:42:24;23.40;99.90
23579;DHT22;11967;50.852;4.400;2022-09-03T04:44:50;23.40;99.90
23579;DHT22;11967;50.852;4.400;2022-09-03T04:47:15;23.40;99.90
23579;DHT22;11967;50.852;4.400;2022-09-03T04:49:41;23.30;99.90
23579;DHT22;11967;50.852;4.400;2022-09-03T04:52:08;23.20;99.90
23579;DHT22;11967;50.852;4.400;2022-09-03T04:54:34;23.10;99.90
23579;DHT22;11967;50.852;4.400;2022-09-03T04:57:01;23.10;99.90
23579;DHT22;11967;50.852;4.400;2022-09-03T04:59:26;23.00;99.90
23579;DHT22;11967;50.852;4.400;2022-09-03T05:01:52;23.10;99.90
23579;DHT22;11967;50.852;4.400;2022-09-03T05:04:18;23.10;99.90
23579;DHT22;11967;50.852;4.400;2022-09-03T05:06:44;23.10;99.90
23579;DHT22;11967;50.852;4.400;2022-09-03T05:09:10;23.20;99.90
23579;DHT22;11967;50.852;4.400;2022-09-03T05:11:36;23.20;99.90
23579;DHT22;11967;50.852;4.400;2022-09-03T05:14:02;23.20;99.90
23579;DHT22;11967;50.852;4.400;2022-09-03T05:16:28;23.20;99.90
23579;DHT22;11967;50.852;4.400;2022-09-03T05:18:56;23.30;99.90
23579;DHT22;11967;50.852;4.400;2022-09-03T05:21:24;23.20;99.90
23579;DHT22;11967;50.852;4.400;2022-09-03T05:23:51;23.20;99.90
23579;DHT22;11967;50.852;4.400;2022-09-03T05:26:19;23.30;99.90
23579;DHT22;11967;50.852;4.400;2022-09-03T05:28:46;23.30;99.90
23579;DHT22;11967;50.852;4.400;2022-09-03T05:31:15;23.40;99.90
23579;DHT22;11967;50.852;4.400;2022-09-03T05:33:45;23.30;99.90
23579;DHT22;11967;50.852;4.400;2022-09-03T05:36:13;23.40;99.90
23579;DHT22;11967;50.852;4.400;2022-09-03T05:38:39;23.40;99.90
23579;DHT22;11967;50.852;4.400;2022-09-03T05:41:07;23.40;99.90
23579;DHT22;11967;50.852;4.400;2022-09-03T05:43:33;23.50;99.90
23579;DHT22;11967;50.852;4.400;2022-09-03T05:46:01;23.50;99.90
23579;DHT22;11967;50.852;4.400;2022-09-03T05:48:32;23.50;99.90
23579;DHT22;11967;50.852;4.400;2022-09-03T05:53:29;23.50;99.90
23579;DHT22;11967;50.852;4.400;2022-09-03T05:55:59;23.50;99.90
23579;DHT22;11967;50.852;4.400;2022-09-03T05:58:29;23.60;99.90
23579;DHT22;11967;50.852;4.400;2022-09-03T06:00:55;23.50;99.90
23579;DHT22;11967;50.852;4.400;2022-09-03T06:03:21;23.60;99.90
23579;DHT22;11967;50.852;4.400;2022-09-03T06:05:51;23.60;99.90
23579;DHT22;11967;50.852;4.400;2022-09-03T06:08:17;23.60;99.90
23579;DHT22;11967;50.852;4.400;2022-09-03T06:10:43;23.50;99.90
23579;DHT22;11967;50.852;4.400;2022-09-03T06:13:09;23.50;99.90
23579;DHT22;11967;50.852;4.400;2022-09-03T06:15:34;23.50;99.90
23579;DHT22;11967;50.852;4.400;2022-09-03T06:18:00;23.50;99.90
23579;DHT22;11967;50.852;4.400;2022-09-03T06:20:26;23.50;99.90
23579;DHT22;11967;50.852;4.400;2022-09-03T06:22:54;23.40;99.90
23579;DHT22;11967;50.852;4.400;2022-09-03T06:25:20;23.50;99.90
23579;DHT22;11967;50.852;4.400;2022-09-03T06:27:46;23.40;99.90
23579;DHT22;11967;50.852;4.400;2022-09-03T06:30:12;23.30;99.90
23579;DHT22;11967;50.852;4.400;2022-09-03T06:32:48;23.40;99.90
23579;DHT22;11967;50.852;4.400;2022-09-03T06:35:17;23.30;99.90
23579;DHT22;11967;50.852;4.400;2022-09-03T06:37:43;23.30;99.90
23579;DHT22;11967;50.852;4.400;2022-09-03T06:40:10;23.40;99.90
23579;DHT22;11967;50.852;4.400;2022-09-03T06:42:41;23.40;99.90
23579;DHT22;11967;50.852;4.400;2022-09-03T06:45:10;23.30;99.90
23579;DHT22;11967;50.852;4.400;2022-09-03T06:47:36;23.20;99.90
23579;DHT22;11967;50.852;4.400;2022-09-03T06:50:02;23.20;99.90
23579;DHT22;11967;50.852;4.400;2022-09-03T06:52:28;23.30;99.90
23579;DHT22;11967;50.852;4.400;2022-09-03T06:54:54;23.30;99.90
23579;DHT22;11967;50.852;4.400;2022-09-03T06:57:19;23.20;99.90
23579;DHT22;11967;50.852;4.400;2022-09-03T06:59:45;23.20;99.90
23579;DHT22;11967;50.852;4.400;2022-09-03T07:02:11;23.20;99.90
23579;DHT22;11967;50.852;4.400;2022-09-03T07:04:38;23.10;99.90
23579;DHT22;11967;50.852;4.400;2022-09-03T07:07:03;23.10;99.90
23579;DHT22;11967;50.852;4.400;2022-09-03T07:09:29;23.10;99.90
23579;DHT22;11967;50.852;4.400;2022-09-03T07:11:56;23.10;99.90
23579;DHT22;11967;50.852;4.400;2022-09-03T07:14:22;23.20;99.90
23579;DHT22;11967;50.852;4.400;2022-09-03T07:16:49;23.20;99.90
23579;DHT22;11967;50.852;4.400;2022-09-03T07:19:15;23.30;99.90
23579;DHT22;11967;50.852;4.400;2022-09-03T07:21:41;23.30;99.90
23579;DHT22;11967;50.852;4.400;2022-09-03T07:24:08;23.30;99.90
23579;DHT22;11967;50.852;4.400;2022-09-03T07:26:36;23.30;99.90
23579;DHT22;11967;50.852;4.400;2022-09-03T07:29:03;23.30;99.90
23579;DHT22;11967;50.852;4.400;2022-09-03T07:31:31;23.30;99.90
23579;DHT22;11967;50.852;4.400;2022-09-03T07:34:01;23.30;99.90
23579;DHT22;11967;50.852;4.400;2022-09-03T07:36:44;23.30;99.90
23579;DHT22;11967;50.852;4.400;2022-09-03T07:39:12;23.40;99.90
23579;DHT22;11967;50.852;4.400;2022-09-03T07:41:40;23.40;99.90
23579;DHT22;11967;50.852;4.400;2022-09-03T07:44:10;23.40;99.90
23579;DHT22;11967;50.852;4.400;2022-09-03T07:46:37;23.40;99.90
23579;DHT22;11967;50.852;4.400;2022-09-03T07:49:03;23.40;99.90
23579;DHT22;11967;50.852;4.400;2022-09-03T07:51:33;23.40;99.90
23579;DHT22;11967;50.852;4.400;2022-09-03T07:54:01;23.40;99.90
23579;DHT22;11967;50.852;4.400;2022-09-03T07:56:28;23.40;99.90
23579;DHT22;11967;50.852;4.400;2022-09-03T07:58:57;23.40;99.90
23579;DHT22;11967;50.852;4.400;2022-09-03T08:01:25;23.50;99.90
23579;DHT22;11967;50.852;4.400;2022-09-03T08:03:53;23.50;99.90
23579;DHT22;11967;50.852;4.400;2022-09-03T08:06:21;23.60;99.90
23579;DHT22;11967;50.852;4.400;2022-09-03T08:08:47;23.50;99.90
23579;DHT22;11967;50.852;4.400;2022-09-03T08:11:18;23.40;99.90
23579;DHT22;11967;50.852;4.400;2022-09-03T08:13:54;23.40;99.90
23579;DHT22;11967;50.852;4.400;2022-09-03T08:16:25;23.40;99.90
23579;DHT22;11967;50.852;4.400;2022-09-03T08:18:51;23.40;99.90
23579;DHT22;11967;50.852;4.400;2022-09-03T08:21:18;23.40;99.90
23579;DHT22;11967;50.852;4.400;2022-09-03T08:23:46;23.40;99.90
23579;DHT22;11967;50.852;4.400;2022-09-03T08:26:13;23.40;99.90
23579;DHT22;11967;50.852;4.400;2022-09-03T08:28:39;23.50;99.90
23579;DHT22;11967;50.852;4.400;2022-09-03T08:33:31;23.50;99.90
23579;DHT22;11967;50.852;4.400;2022-09-03T08:36:08;23.60;99.90
23579;DHT22;11967;50.852;4.400;2022-09-03T08:38:35;23.70;99.90
23579;DHT22;11967;50.852;4.400;2022-09-03T08:44:05;23.70;99.90
23579;DHT22;11967;50.852;4.400;2022-09-03T08:51:52;23.80;99.90
23579;DHT22;11967;50.852;4.400;2022-09-03T08:54:21;23.80;99.90
23579;DHT22;11967;50.852;4.400;2022-09-03T08:56:48;23.80;99.90
23579;DHT22;11967;50.852;4.400;2022-09-03T08:59:14;23.90;99.90
23579;DHT22;11967;50.852;4.400;2022-09-03T09:01:54;23.90;99.90
23579;DHT22;11967;50.852;4.400;2022-09-03T09:04:38;23.80;99.90
23579;DHT22;11967;50.852;4.400;2022-09-03T09:12:50;24.00;99.90
23579;DHT22;11967;50.852;4.400;2022-09-03T09:21:38;24.00;99.90
23579;DHT22;11967;50.852;4.400;2022-09-03T09:24:16;23.90;99.90
23579;DHT22;11967;50.852;4.400;2022-09-03T09:26:46;23.90;99.90
23579;DHT22;11967;50.852;4.400;2022-09-03T09:29:14;24.00;99.90
23579;DHT22;11967;50.852;4.400;2022-09-03T09:31:40;24.10;99.90
23579;DHT22;11967;50.852;4.400;2022-09-03T09:34:09;24.10;99.90
23579;DHT22;11967;50.852;4.400;2022-09-03T09:36:46;24.10;99.90
23579;DHT22;11967;50.852;4.400;2022-09-03T09:39:13;24.20;99.90
23579;DHT22;11967;50.852;4.400;2022-09-03T09:41:41;24.30;99.90
23579;DHT22;11967;50.852;4.400;2022-09-03T09:44:16;24.40;99.90
23579;DHT22;11967;50.852;4.400;2022-09-03T09:46:43;24.30;99.90
23579;DHT22;11967;50.852;4.400;2022-09-03T09:49:30;24.40;99.90
23579;DHT22;11967;50.852;4.400;2022-09-03T09:52:11;24.40;99.90
23579;DHT22;11967;50.852;4.400;2022-09-03T09:54:39;24.40;99.90
23579;DHT22;11967;50.852;4.400;2022-09-03T09:57:07;24.30;99.90
23579;DHT22;11967;50.852;4.400;2022-09-03T09:59:33;24.30;99.90
23579;DHT22;11967;50.852;4.400;2022-09-03T10:02:25;24.40;99.90
23579;DHT22;11967;50.852;4.400;2022-09-03T10:04:52;24.40;99.90
23579;DHT22;11967;50.852;4.400;2022-09-03T10:07:25;24.50;99.90
23579;DHT22;11967;50.852;4.400;2022-09-03T10:13:13;24.50;99.90
23579;DHT22;11967;50.852;4.400;2022-09-03T10:16:01;24.60;99.90
23579;DHT22;11967;50.852;4.400;2022-09-03T10:18:43;24.60;99.90
23579;DHT22;11967;50.852;4.400;2022-09-03T10:21:36;24.60;99.90
23579;DHT22;11967;50.852;4.400;2022-09-03T10:27:09;24.80;99.90
23579;DHT22;11967;50.852;4.400;2022-09-03T10:29:38;24.80;99.90
23579;DHT22;11967;50.852;4.400;2022-09-03T10:34:51;24.80;99.90
23579;DHT22;11967;50.852;4.400;2022-09-03T10:43:21;25.20;99.90
23579;DHT22;11967;50.852;4.400;2022-09-03T10:46:01;25.10;99.90
23579;DHT22;11967;50.852;4.400;2022-09-03T10:51:26;25.30;99.90
23579;DHT22;11967;50.852;4.400;2022-09-03T10:57:01;25.40;99.90
23579;DHT22;11967;50.852;4.400;2022-09-03T11:05:19;25.80;99.90
23579;DHT22;11967;50.852;4.400;2022-09-03T11:07:52;25.90;99.90
23579;DHT22;11967;50.852;4.400;2022-09-03T11:10:33;26.00;99.90
23579;DHT22;11967;50.852;4.400;2022-09-03T11:15:55;26.10;99.90
23579;DHT22;11967;50.852;4.400;2022-09-03T11:20:58;26.20;99.90
23579;DHT22;11967;50.852;4.400;2022-09-03T11:23:31;26.20;99.90
23579;DHT22;11967;50.852;4.400;2022-09-03T11:26:01;26.40;99.90
23579;DHT22;11967;50.852;4.400;2022-09-03T11:31:55;26.40;99.90
23579;DHT22;11967;50.852;4.400;2022-09-03T11:34:29;26.50;99.90
23579;DHT22;11967;50.852;4.400;2022-09-03T11:37:06;26.40;99.90
23579;DHT22;11967;50.852;4.400;2022-09-03T11:39:39;26.20;99.90
23579;DHT22;11967;50.852;4.400;2022-09-03T11:42:19;26.20;99.90
23579;DHT22;11967;50.852;4.400;2022-09-03T11:44:50;26.20;99.90
23579;DHT22;11967;50.852;4.400;2022-09-03T11:49:50;26.10;99.90
23579;DHT22;11967;50.852;4.400;2022-09-03T11:52:30;26.10;99.90
23579;DHT22;11967;50.852;4.400;2022-09-03T11:55:05;26.10;99.90
23579;DHT22;11967;50.852;4.400;2022-09-03T11:57:32;26.10;99.90
23579;DHT22;11967;50.852;4.400;2022-09-03T12:00:15;26.10;99.90
23579;DHT22;11967;50.852;4.400;2022-09-03T12:02:51;26.20;99.90
23579;DHT22;11967;50.852;4.400;2022-09-03T12:05:27;26.10;99.90
23579;DHT22;11967;50.852;4.400;2022-09-03T12:08:18;26.10;99.90
23579;DHT22;11967;50.852;4.400;2022-09-03T12:16:21;26.20;99.90
23579;DHT22;11967;50.852;4.400;2022-09-03T12:18:49;26.20;99.90
23579;DHT22;11967;50.852;4.400;2022-09-03T12:21:17;26.30;99.90
23579;DHT22;11967;50.852;4.400;2022-09-03T12:23:44;26.30;99.90
23579;DHT22;11967;50.852;4.400;2022-09-03T12:26:17;26.40;99.90
23579;DHT22;11967;50.852;4.400;2022-09-03T12:28:55;26.50;99.90
23579;DHT22;11967;50.852;4.400;2022-09-03T12:31:28;26.50;99.90
23579;DHT22;11967;50.852;4.400;2022-09-03T12:36:24;26.70;99.90
23579;DHT22;11967;50.852;4.400;2022-09-03T12:38:50;26.80;99.90
23579;DHT22;11967;50.852;4.400;2022-09-03T12:41:21;26.80;99.90
23579;DHT22;11967;50.852;4.400;2022-09-03T12:43:55;26.90;99.90
23579;DHT22;11967;50.852;4.400;2022-09-03T12:46:31;26.90;99.90
23579;DHT22;11967;50.852;4.400;2022-09-03T12:49:03;26.90;99.90
23579;DHT22;11967;50.852;4.400;2022-09-03T12:51:35;26.90;99.90
23579;DHT22;11967;50.852;4.400;2022-09-03T12:54:03;26.80;99.90
23579;DHT22;11967;50.852;4.400;2022-09-03T12:56:32;26.60;99.90
23579;DHT22;11967;50.852;4.400;2022-09-03T12:59:11;26.50;99.90
23579;DHT22;11967;50.852;4.400;2022-09-03T13:02:00;26.50;99.90
23579;DHT22;11967;50.852;4.400;2022-09-03T13:04:32;26.70;99.90
23579;DHT22;11967;50.852;4.400;2022-09-03T13:07:03;26.80;99.90
23579;DHT22;11967;50.852;4.400;2022-09-03T13:09:33;26.90;99.90
23579;DHT22;11967;50.852;4.400;2022-09-03T13:12:00;26.90;99.90
23579;DHT22;11967;50.852;4.400;2022-09-03T13:14:44;27.00;99.90
23579;DHT22;11967;50.852;4.400;2022-09-03T13:17:36;26.90;99.90
23579;DHT22;11967;50.852;4.400;2022-09-03T13:26:13;26.90;99.90
23579;DHT22;11967;50.852;4.400;2022-09-03T13:29:15;26.80;99.90
23579;DHT22;11967;50.852;4.400;2022-09-03T13:31:51;26.80;99.90
23579;DHT22;11967;50.852;4.400;2022-09-03T13:34:34;26.80;99.90
23579;DHT22;11967;50.852;4.400;2022-09-03T13:39:57;26.80;99.90
23579;DHT22;11967;50.852;4.400;2022-09-03T13:42:43;26.90;99.90
23579;DHT22;11967;50.852;4.400;2022-09-03T13:45:36;26.90;99.90
23579;DHT22;11967;50.852;4.400;2022-09-03T13:48:38;26.90;99.90
23579;DHT22;11967;50.852;4.400;2022-09-03T13:51:37;27.00;99.90
23579;DHT22;11967;50.852;4.400;2022-09-03T13:54:14;27.00;99.90
23579;DHT22;11967;50.852;4.400;2022-09-03T13:57:04;26.90;99.90
23579;DHT22;11967;50.852;4.400;2022-09-03T14:05:17;26.80;99.90
23579;DHT22;11967;50.852;4.400;2022-09-03T14:27:22;27.00;99.90
23579;DHT22;11967;50.852;4.400;2022-09-03T14:30:18;27.00;99.90
23579;DHT22;11967;50.852;4.400;2022-09-03T14:38:13;26.90;99.90
23579;DHT22;11967;50.852;4.400;2022-09-03T14:40:45;26.90;99.90
23579;DHT22;11967;50.852;4.400;2022-09-03T14:46:10;26.90;99.90
23579;DHT22;11967;50.852;4.400;2022-09-03T14:48:47;26.80;99.90
23579;DHT22;11967;50.852;4.400;2022-09-03T14:54:11;26.80;99.90
23579;DHT22;11967;50.852;4.400;2022-09-03T14:57:16;26.70;99.90
23579;DHT22;11967;50.852;4.400;2022-09-03T15:02:36;26.30;99.90
23579;DHT22;11967;50.852;4.400;2022-09-03T15:13:16;26.30;99.90
23579;DHT22;11967;50.852;4.400;2022-09-03T15:18:28;26.50;99.90
23579;DHT22;11967;50.852;4.400;2022-09-03T15:30:15;26.50;99.90
23579;DHT22;11967;50.852;4.400;2022-09-03T15:32:49;26.50;99.90
23579;DHT22;11967;50.852;4.400;2022-09-03T15:44:10;26.50;99.90
23579;DHT22;11967;50.852;4.400;2022-09-03T15:46:58;26.60;99.90
23579;DHT22;11967;50.852;4.400;2022-09-03T16:00:53;26.30;99.90
23579;DHT22;11967;50.852;4.400;2022-09-03T16:09:23;25.80;99.90
23579;DHT22;11967;50.852;4.400;2022-09-03T16:20:13;25.80;99.90
23579;DHT22;11967;50.852;4.400;2022-09-03T16:22:58;25.80;99.90
23579;DHT22;11967;50.852;4.400;2022-09-03T16:28:18;25.90;99.90
23579;DHT22;11967;50.852;4.400;2022-09-03T16:44:23;26.20;99.90
23579;DHT22;11967;50.852;4.400;2022-09-03T17:04:49;26.40;99.90
23579;DHT22;11967;50.852;4.400;2022-09-03T17:13:07;26.40;99.90
23579;DHT22;11967;50.852;4.400;2022-09-03T17:21:42;26.40;99.90
23579;DHT22;11967;50.852;4.400;2022-09-03T17:24:14;26.30;99.90
23579;DHT22;11967;50.852;4.400;2022-09-03T17:27:09;26.30;99.90
23579;DHT22;11967;50.852;4.400;2022-09-03T17:29:54;26.30;99.90
23579;DHT22;11967;50.852;4.400;2022-09-03T17:35:32;26.20;99.90
23579;DHT22;11967;50.852;4.400;2022-09-03T17:43:41;26.00;99.90
23579;DHT22;11967;50.852;4.400;2022-09-03T17:46:56;25.90;99.90
23579;DHT22;11967;50.852;4.400;2022-09-03T17:49:33;25.90;99.90
23579;DHT22;11967;50.852;4.400;2022-09-03T17:52:04;25.80;99.90
23579;DHT22;11967;50.852;4.400;2022-09-03T17:54:40;25.70;99.90
23579;DHT22;11967;50.852;4.400;2022-09-03T17:57:30;25.70;99.90
23579;DHT22;11967;50.852;4.400;2022-09-03T18:00:11;25.80;99.90
23579;DHT22;11967;50.852;4.400;2022-09-03T18:05:54;25.80;99.90
23579;DHT22;11967;50.852;4.400;2022-09-03T18:08:57;25.70;99.90
23579;DHT22;11967;50.852;4.400;2022-09-03T18:11:52;25.70;99.90
23579;DHT22;11967;50.852;4.400;2022-09-03T18:14:23;25.70;99.90
23579;DHT22;11967;50.852;4.400;2022-09-03T18:17:03;25.60;99.90
23579;DHT22;11967;50.852;4.400;2022-09-03T18:19:36;25.60;99.90
23579;DHT22;11967;50.852;4.400;2022-09-03T18:22:29;25.60;99.90
23579;DHT22;11967;50.852;4.400;2022-09-03T18:25:16;25.40;99.90
23579;DHT22;11967;50.852;4.400;2022-09-03T18:28:06;25.40;99.90
23579;DHT22;11967;50.852;4.400;2022-09-03T18:30:53;25.40;99.90
23579;DHT22;11967;50.852;4.400;2022-09-03T18:33:37;25.40;99.90
23579;DHT22;11967;50.852;4.400;2022-09-03T18:36:22;25.40;99.90
23579;DHT22;11967;50.852;4.400;2022-09-03T18:39:24;25.40;99.90
23579;DHT22;11967;50.852;4.400;2022-09-03T18:42:21;25.30;99.90
23579;DHT22;11967;50.852;4.400;2022-09-03T18:48:16;25.30;99.90
23579;DHT22;11967;50.852;4.400;2022-09-03T18:57:26;25.10;99.90
23579;DHT22;11967;50.852;4.400;2022-09-03T19:00:14;25.10;99.90
23579;DHT22;11967;50.852;4.400;2022-09-03T19:06:11;25.10;99.90
23579;DHT22;11967;50.852;4.400;2022-09-03T19:09:19;25.00;99.90
23579;DHT22;11967;50.852;4.400;2022-09-03T19:15:33;24.90;99.90
23579;DHT22;11967;50.852;4.400;2022-09-03T19:21:49;25.00;99.90
23579;DHT22;11967;50.852;4.400;2022-09-03T19:24:36;25.00;99.90
23579;DHT22;11967;50.852;4.400;2022-09-03T19:30:45;25.00;99.90
23579;DHT22;11967;50.852;4.400;2022-09-03T19:33:40;24.90;99.90
23579;DHT22;11967;50.852;4.400;2022-09-03T19:42:50;24.90;99.90
23579;DHT22;11967;50.852;4.400;2022-09-03T19:48:46;24.80;99.90
23579;DHT22;11967;50.852;4.400;2022-09-03T19:52:02;24.80;99.90
23579;DHT22;11967;50.852;4.400;2022-09-03T19:54:48;24.90;99.90
23579;DHT22;11967;50.852;4.400;2022-09-03T19:57:35;24.90;99.90
23579;DHT22;11967;50.852;4.400;2022-09-03T20:00:22;25.00;99.90
23579;DHT22;11967;50.852;4.400;2022-09-03T20:03:06;25.00;99.90
23579;DHT22;11967;50.852;4.400;2022-09-03T20:05:51;25.00;99.90
23579;DHT22;11967;50.852;4.400;2022-09-03T20:08:35;25.00;99.90
23579;DHT22;11967;50.852;4.400;2022-09-03T20:11:21;25.00;99.90
23579;DHT22;11967;50.852;4.400;2022-09-03T20:13:47;25.00;99.90
23579;DHT22;11967;50.852;4.400;2022-09-03T20:19:36;25.00;99.90
23579;DHT22;11967;50.852;4.400;2022-09-03T20:22:40;25.00;99.90
23579;DHT22;11967;50.852;4.400;2022-09-03T20:30:49;25.00;99.90
23579;DHT22;11967;50.852;4.400;2022-09-03T20:56:14;25.00;99.90
23579;DHT22;11967;50.852;4.400;2022-09-03T21:07:20;25.00;99.90
23579;DHT22;11967;50.852;4.400;2022-09-03T21:15:31;24.90;99.90
23579;DHT22;11967;50.852;4.400;2022-09-03T21:20:51;24.90;99.90
23579;DHT22;11967;50.852;4.400;2022-09-03T21:23:27;24.90;99.90
23579;DHT22;11967;50.852;4.400;2022-09-03T21:28:49;24.80;99.90
23579;DHT22;11967;50.852;4.400;2022-09-03T21:31:22;24.60;99.90
23579;DHT22;11967;50.852;4.400;2022-09-03T21:33:54;24.50;99.90
23579;DHT22;11967;50.852;4.400;2022-09-03T21:36:29;24.50;99.90
23579;DHT22;11967;50.852;4.400;2022-09-03T21:41:58;24.40;99.90
23579;DHT22;11967;50.852;4.400;2022-09-03T21:44:41;24.30;99.90
23579;DHT22;11967;50.852;4.400;2022-09-03T21:47:16;24.30;99.90
23579;DHT22;11967;50.852;4.400;2022-09-03T21:51:03;24.30;99.90
23579;DHT22;11967;50.852;4.400;2022-09-03T21:53:19;24.30;99.90
23579;DHT22;11967;50.852;4.400;2022-09-03T22:01:17;24.10;99.90
23579;DHT22;11967;50.852;4.400;2022-09-03T22:03:44;24.20;99.90
23579;DHT22;11967;50.852;4.400;2022-09-03T22:09:44;24.10;99.90
23579;DHT22;11967;50.852;4.400;2022-09-03T22:12:40;24.10;99.90
23579;DHT22;11967;50.852;4.400;2022-09-03T22:15:09;24.10;99.90
23579;DHT22;11967;50.852;4.400;2022-09-03T22:20:15;24.10;99.90
23579;DHT22;11967;50.852;4.400;2022-09-03T22:22:48;24.00;99.90
23579;DHT22;11967;50.852;4.400;2022-09-03T22:28:16;24.00;99.90
23579;DHT22;11967;50.852;4.400;2022-09-03T22:30:57;24.00;99.90
23579;DHT22;11967;50.852;4.400;2022-09-03T22:33:35;24.00;99.90
23579;DHT22;11967;50.852;4.400;2022-09-03T22:41:23;24.00;99.90
23579;DHT22;11967;50.852;4.400;2022-09-03T22:44:14;23.90;99.90
23579;DHT22;11967;50.852;4.400;2022-09-03T22:47:14;23.90;99.90
23579;DHT22;11967;50.852;4.400;2022-09-03T22:49:53;23.90;99.90
23579;DHT22;11967;50.852;4.400;2022-09-03T22:58:12;23.90;99.90